createdAt,value
2022-11-06T00:01:35.486Z,3.08
2022-11-06T00:04:02.471Z,4.72
2022-11-06T00:06:47.859Z,3.80
2022-11-06T00:09:19.255Z,1.75
2022-11-06T00:11:49.005Z,1.95
2022-11-06T00:14:17.049Z,7.38
2022-11-06T00:16:45.823Z,1.88
2022-11-06T00:19:13.106Z,1.75
2022-11-06T00:21:40.274Z,2.90
2022-11-06T00:24:09.642Z,2.80
2022-11-06T00:26:37.157Z,2.35
2022-11-06T00:29:06.081Z,4.00
2022-11-06T00:31:35.866Z,2.22
2022-11-06T00:34:03.788Z,2.45
2022-11-06T00:36:31.427Z,2.42
2022-11-06T00:38:59.618Z,1.20
2022-11-06T00:41:27.582Z,4.72
2022-11-06T00:43:58.921Z,1.35
2022-11-06T00:46:26.808Z,2.60
2022-11-06T00:48:54.751Z,4.20
2022-11-06T00:51:27.854Z,3.55
2022-11-06T00:53:57.044Z,8.93
2022-11-06T00:56:24.426Z,1.35
2022-11-06T00:58:52.142Z,2.28
2022-11-06T01:01:33.729Z,6.07
2022-11-06T01:04:21.783Z,1.65
2022-11-06T01:06:53.008Z,4.40
2022-11-06T01:09:22.793Z,3.33
2022-11-06T01:14:43.658Z,4.43
2022-11-06T01:17:10.838Z,4.70
2022-11-06T01:19:37.864Z,2.17
2022-11-06T01:22:04.850Z,1.20
2022-11-06T01:24:32.811Z,3.95
2022-11-06T01:29:47.391Z,1.55
2022-11-06T01:32:14.521Z,2.22
2022-11-06T01:34:41.621Z,2.38
2022-11-06T01:37:14.006Z,1.27
2022-11-06T01:39:41.879Z,1.20
2022-11-06T01:42:11.899Z,1.60
2022-11-06T01:44:44.977Z,2.17
2022-11-06T01:47:25.240Z,0.82
2022-11-06T01:49:56.420Z,1.65
2022-11-06T01:52:25.111Z,2.75
2022-11-06T01:54:57.063Z,1.35
2022-11-06T01:57:24.328Z,1.02
2022-11-06T01:59:53.836Z,0.90
2022-11-06T02:02:21.581Z,2.08
2022-11-06T02:04:49.395Z,0.50
2022-11-06T02:07:19.121Z,4.88
2022-11-06T02:09:46.339Z,1.10
2022-11-06T02:12:32.403Z,0.60
2022-11-06T02:15:08.760Z,1.10
2022-11-06T02:17:53.128Z,0.75
2022-11-06T02:20:39.450Z,0.73
2022-11-06T02:23:30.040Z,0.77
2022-11-06T02:26:12.516Z,1.20
2022-11-06T02:28:47.831Z,3.30
2022-11-06T02:31:24.944Z,3.58
2022-11-06T02:34:03.291Z,1.20
2022-11-06T02:36:35.661Z,1.30
2022-11-06T02:39:07.898Z,3.10
2022-11-06T02:41:40.811Z,1.35
2022-11-06T02:44:13.866Z,3.00
2022-11-06T02:46:49.427Z,0.75
2022-11-06T02:49:41.581Z,4.43
2022-11-06T02:52:35.310Z,2.47
2022-11-06T02:55:11.444Z,1.23
2022-11-06T02:57:43.602Z,2.70
2022-11-06T03:00:14.163Z,1.10
2022-11-06T03:03:05.199Z,1.75
2022-11-06T03:05:49.665Z,1.52
2022-11-06T03:08:46.430Z,6.90
2022-11-06T03:11:24.188Z,4.30
2022-11-06T03:14:02.324Z,3.13
2022-11-06T03:16:42.647Z,3.38
2022-11-06T03:19:42.723Z,3.78
2022-11-06T03:22:31.956Z,1.23
2022-11-06T03:25:20.608Z,4.35
2022-11-06T03:28:04.256Z,3.00
2022-11-06T03:30:35.480Z,1.52
2022-11-06T03:33:21.277Z,5.18
2022-11-06T03:35:53.140Z,1.15
2022-11-06T03:38:23.149Z,2.75
2022-11-06T03:41:01.977Z,2.10
2022-11-06T03:43:34.559Z,3.35
2022-11-06T03:46:04.527Z,2.28
2022-11-06T03:48:35.940Z,1.05
2022-11-06T03:51:21.437Z,5.80
2022-11-06T03:53:49.717Z,2.85
2022-11-06T03:56:23.874Z,5.38
2022-11-06T03:58:51.919Z,1.73
2022-11-06T04:01:24.366Z,0.65
2022-11-06T04:03:59.551Z,1.60
2022-11-06T04:06:51.336Z,2.05
2022-11-06T04:09:39.078Z,2.85
2022-11-06T04:12:27.543Z,1.52
2022-11-06T04:14:56.426Z,1.75
2022-11-06T04:17:26.800Z,1.80
2022-11-06T04:19:58.446Z,2.70
2022-11-06T04:22:44.253Z,0.90
2022-11-06T04:25:59.042Z,2.10
2022-11-06T04:28:54.703Z,1.38
2022-11-06T04:31:37.870Z,1.45
2022-11-06T04:34:22.953Z,2.67
2022-11-06T04:36:56.231Z,3.50
2022-11-06T04:39:31.351Z,2.30
2022-11-06T04:42:22.583Z,1.83
2022-11-06T04:45:06.832Z,2.92
2022-11-06T04:47:36.642Z,1.83
2022-11-06T04:50:07.134Z,0.80
2022-11-06T04:52:35.556Z,4.30
2022-11-06T04:55:02.704Z,0.55
2022-11-06T04:57:29.656Z,1.88
2022-11-06T04:59:57.031Z,1.65
2022-11-06T05:02:24.756Z,1.48
2022-11-06T05:04:51.922Z,2.60
2022-11-06T05:07:18.904Z,2.95
2022-11-06T05:09:45.910Z,2.63
2022-11-06T05:12:13.026Z,2.63
2022-11-06T05:14:40.001Z,2.30
2022-11-06T05:17:07.431Z,1.38
2022-11-06T05:19:34.419Z,2.55
2022-11-06T05:22:20.288Z,1.10
2022-11-06T05:24:48.070Z,2.33
2022-11-06T05:27:15.093Z,1.70
2022-11-06T05:29:42.109Z,2.72
2022-11-06T05:32:09.228Z,5.70
2022-11-06T05:34:36.197Z,1.77
2022-11-06T05:37:03.196Z,2.08
2022-11-06T05:39:30.217Z,1.23
2022-11-06T05:41:57.247Z,0.90
2022-11-06T05:44:24.449Z,1.67
2022-11-06T05:46:51.438Z,1.00
2022-11-06T05:49:21.475Z,1.30
2022-11-06T05:51:49.333Z,1.00
2022-11-06T05:54:16.379Z,0.60
2022-11-06T05:56:43.417Z,1.27
2022-11-06T05:59:10.474Z,0.70
2022-11-06T06:01:37.601Z,2.05
2022-11-06T06:04:04.773Z,0.82
2022-11-06T06:06:31.802Z,1.40
2022-11-06T06:08:58.882Z,1.10
2022-11-06T06:11:25.859Z,1.83
2022-11-06T06:13:52.818Z,2.45
2022-11-06T06:16:19.917Z,1.30
2022-11-06T06:18:50.867Z,1.88
2022-11-06T06:21:18.230Z,1.42
2022-11-06T06:23:45.292Z,1.02
2022-11-06T06:26:12.263Z,2.15
2022-11-06T06:28:39.322Z,0.80
2022-11-06T06:31:07.287Z,1.40
2022-11-06T06:33:39.297Z,3.22
2022-11-06T06:36:07.545Z,3.95
2022-11-06T06:38:35.374Z,1.70
2022-11-06T06:41:07.128Z,4.10
2022-11-06T06:43:35.342Z,1.52
2022-11-06T06:46:04.775Z,2.42
2022-11-06T06:48:32.350Z,2.60
2022-11-06T06:51:03.361Z,1.55
2022-11-06T06:53:34.302Z,1.20
2022-11-06T06:56:02.037Z,3.92
2022-11-06T06:58:30.044Z,2.05
2022-11-06T07:01:05.519Z,1.40
2022-11-06T07:03:33.565Z,2.28
2022-11-06T07:06:01.717Z,1.83
2022-11-06T07:08:30.704Z,2.25
2022-11-06T07:11:08.790Z,1.33
2022-11-06T07:13:36.698Z,2.17
2022-11-06T07:16:09.437Z,1.83
2022-11-06T07:18:38.727Z,1.70
2022-11-06T07:21:07.935Z,2.63
2022-11-06T07:23:35.982Z,0.88
2022-11-06T07:26:04.072Z,1.20
2022-11-06T07:28:34.841Z,1.10
2022-11-06T07:31:04.304Z,1.05
2022-11-06T07:33:31.446Z,2.78
2022-11-06T07:36:19.575Z,1.17
2022-11-06T07:38:47.074Z,4.80
2022-11-06T07:41:17.167Z,4.53
2022-11-06T07:44:02.122Z,12.98
2022-11-06T07:46:29.429Z,5.80
2022-11-06T07:49:09.296Z,4.60
2022-11-06T07:51:37.666Z,3.00
2022-11-06T07:54:04.700Z,3.42
2022-11-06T07:56:31.945Z,1.63
2022-11-06T07:58:58.914Z,2.85
2022-11-06T08:01:26.076Z,3.85
2022-11-06T08:03:53.113Z,3.25
2022-11-06T08:06:20.631Z,1.10
2022-11-06T08:08:47.925Z,3.78
2022-11-06T08:11:15.617Z,1.38
2022-11-06T08:13:44.042Z,2.55
2022-11-06T08:16:13.925Z,5.45
2022-11-06T08:18:41.938Z,4.82
2022-11-06T08:21:09.169Z,10.40
2022-11-06T08:23:36.631Z,6.20
2022-11-06T08:26:06.602Z,3.92
2022-11-06T08:28:34.203Z,2.28
2022-11-06T08:31:08.820Z,2.85
2022-11-06T08:33:37.449Z,1.50
2022-11-06T08:36:06.167Z,1.70
2022-11-06T08:38:33.697Z,1.52
2022-11-06T08:41:08.636Z,12.68
2022-11-06T08:43:36.082Z,4.43
2022-11-06T08:46:04.616Z,2.70
2022-11-06T08:48:33.476Z,7.18
2022-11-06T08:51:00.433Z,3.55
2022-11-06T08:53:27.551Z,3.15
2022-11-06T08:55:54.537Z,7.68
2022-11-06T08:58:21.403Z,5.20
2022-11-06T09:00:48.399Z,2.72
2022-11-06T10:01:18.939Z,9.23
2022-11-06T10:06:21.367Z,12.00
2022-11-06T10:08:49.612Z,14.05
2022-11-06T10:11:16.607Z,12.00
2022-11-06T14:30:07.053Z,5.38
2022-11-06T14:32:41.255Z,8.25
2022-11-06T14:35:29.792Z,8.13
2022-11-06T14:38:29.909Z,5.47
2022-11-06T14:40:58.239Z,6.10
2022-11-06T14:43:34.389Z,6.00
2022-11-06T14:46:16.318Z,4.60
2022-11-06T14:48:46.954Z,5.15
2022-11-06T14:51:15.606Z,3.85
2022-11-06T14:53:51.676Z,7.50
2022-11-06T14:56:31.104Z,7.00
2022-11-06T14:59:03.366Z,11.75
2022-11-06T15:01:32.290Z,5.88
2022-11-06T15:04:06.286Z,6.97
2022-11-06T15:06:33.176Z,4.60
2022-11-06T15:09:02.923Z,5.35
2022-11-06T15:11:32.580Z,5.18
2022-11-06T15:14:02.220Z,14.05
2022-11-06T15:16:50.651Z,16.48
2022-11-06T15:19:29.767Z,10.35
2022-11-06T15:21:57.713Z,14.70
2022-11-06T15:24:32.951Z,11.27
2022-11-06T15:27:08.634Z,9.43
2022-11-06T15:29:42.067Z,7.25
2022-11-06T15:32:28.089Z,22.63
2022-11-06T15:35:13.317Z,9.35
2022-11-06T15:37:46.919Z,8.35
2022-11-06T15:40:23.539Z,5.20
2022-11-06T15:42:51.374Z,11.05
2022-11-06T15:45:18.240Z,10.73
2022-11-06T15:47:59.803Z,11.00
2022-11-06T15:50:29.783Z,14.77
2022-11-06T15:53:23.354Z,10.15
2022-11-06T15:56:05.486Z,9.77
2022-11-06T15:58:37.641Z,10.45
2022-11-06T16:01:07.058Z,11.43
2022-11-06T16:03:47.395Z,12.98
2022-11-06T16:06:14.784Z,9.18
2022-11-06T16:08:42.244Z,9.40
2022-11-06T16:11:16.892Z,7.80
2022-11-06T16:13:46.774Z,10.35
2022-11-06T16:16:35.276Z,11.80
2022-11-06T16:19:05.295Z,9.30
2022-11-06T16:21:34.961Z,11.40
2022-11-06T16:24:12.334Z,17.05
2022-11-06T16:26:46.119Z,12.20
2022-11-06T16:29:29.915Z,11.93
2022-11-06T16:32:02.468Z,8.63
2022-11-06T16:34:32.193Z,9.40
2022-11-06T16:37:06.203Z,9.93
2022-11-06T16:39:49.999Z,8.10
2022-11-06T16:42:29.697Z,9.55
2022-11-06T16:45:20.122Z,6.88
2022-11-06T16:48:10.012Z,11.10
2022-11-06T16:50:47.140Z,8.52
2022-11-06T16:53:26.124Z,10.05
2022-11-06T16:56:00.713Z,10.85
2022-11-06T16:58:32.327Z,11.52
2022-11-06T17:01:05.710Z,9.25
2022-11-06T17:03:47.164Z,11.55
2022-11-06T17:06:35.162Z,10.05
2022-11-06T17:09:24.311Z,8.13
2022-11-06T17:11:56.321Z,8.75
2022-11-06T17:14:24.403Z,7.75
2022-11-06T17:16:54.133Z,9.05
2022-11-06T17:19:22.079Z,10.70
2022-11-06T17:21:50.678Z,9.02
2022-11-06T17:24:36.131Z,12.30
2022-11-06T17:27:04.216Z,8.20
2022-11-06T17:29:31.559Z,9.48
2022-11-06T17:31:58.500Z,14.13
2022-11-06T17:34:25.447Z,10.18
2022-11-06T17:36:52.371Z,9.07
2022-11-06T17:39:19.501Z,8.20
2022-11-06T17:41:46.470Z,13.95
2022-11-06T17:44:13.580Z,13.35
2022-11-06T17:46:42.366Z,10.05
2022-11-06T17:49:15.828Z,10.48
2022-11-06T17:51:50.745Z,8.70
2022-11-06T17:54:26.260Z,9.45
2022-11-06T17:56:58.945Z,8.50
2022-11-06T17:59:26.128Z,8.73
2022-11-06T18:01:54.166Z,10.82
2022-11-06T18:04:22.985Z,8.55
2022-11-06T18:06:52.177Z,7.93
2022-11-06T18:09:20.551Z,10.45
2022-11-06T18:11:50.217Z,6.85
2022-11-06T18:14:17.986Z,7.72
2022-11-06T18:16:44.947Z,7.32
2022-11-06T18:19:15.416Z,6.38
2022-11-06T18:21:42.466Z,8.05
2022-11-06T18:24:09.522Z,6.75
2022-11-06T18:26:37.417Z,8.23
2022-11-06T18:29:06.210Z,6.35
2022-11-06T18:31:33.598Z,6.82
2022-11-06T18:34:00.674Z,7.80
2022-11-06T18:36:27.662Z,11.27
2022-11-06T18:38:54.602Z,10.35
2022-11-06T18:41:38.798Z,7.63
2022-11-06T18:44:10.669Z,9.95
2022-11-06T18:46:37.634Z,9.70
2022-11-06T18:49:04.602Z,8.15
2022-11-06T18:51:35.733Z,9.40
2022-11-06T18:54:06.487Z,9.70
2022-11-06T18:56:36.216Z,9.23
2022-11-06T18:59:07.626Z,10.20
2022-11-06T19:01:35.496Z,8.98
2022-11-06T19:04:03.916Z,11.73
2022-11-06T19:06:31.733Z,9.95
2022-11-06T19:08:58.949Z,8.52
2022-11-06T19:11:25.978Z,9.18
2022-11-06T19:13:53.254Z,8.55
2022-11-06T19:16:20.449Z,7.07
2022-11-06T19:21:30.392Z,8.32
2022-11-06T19:24:04.533Z,11.20
2022-11-06T19:26:34.112Z,7.13
2022-11-06T19:29:01.346Z,7.43
2022-11-06T19:31:29.968Z,11.38
2022-11-06T19:33:59.036Z,8.73
2022-11-06T19:36:26.605Z,8.77
2022-11-06T19:38:54.313Z,8.45
2022-11-06T19:41:21.639Z,6.80
2022-11-06T19:43:48.656Z,5.32
2022-11-06T19:46:24.089Z,7.93
2022-11-06T19:48:51.819Z,7.65
2022-11-06T19:51:19.159Z,9.07
2022-11-06T19:53:46.542Z,6.65
2022-11-06T19:56:16.713Z,9.35
2022-11-06T19:58:44.121Z,8.80
2022-11-06T20:01:15.672Z,7.47
2022-11-06T20:03:43.652Z,7.45
2022-11-06T20:06:18.155Z,6.70
2022-11-06T20:08:50.344Z,7.68
2022-11-06T20:11:18.219Z,10.48
2022-11-06T20:13:46.020Z,9.50
2022-11-06T20:16:18.841Z,7.13
2022-11-06T20:18:57.335Z,12.83
2022-11-06T20:21:28.980Z,10.30
2022-11-06T20:23:57.304Z,9.38
2022-11-06T20:26:24.505Z,8.70
2022-11-06T20:28:52.044Z,10.20
2022-11-06T20:31:19.859Z,8.80
2022-11-06T20:33:48.016Z,7.78
2022-11-06T20:36:25.794Z,6.90
2022-11-06T20:38:54.494Z,8.25
2022-11-06T20:41:23.300Z,10.57
2022-11-06T20:43:51.995Z,9.45
2022-11-06T20:46:20.094Z,7.32
2022-11-06T20:48:47.598Z,8.25
2022-11-06T20:51:16.708Z,8.65
2022-11-06T20:53:43.956Z,7.97
2022-11-06T20:56:14.117Z,9.80
2022-11-06T20:58:41.515Z,8.73
2022-11-06T21:01:17.346Z,8.20
2022-11-06T21:03:44.735Z,8.55
2022-11-06T21:06:12.093Z,9.73
2022-11-06T21:08:40.439Z,7.55
2022-11-06T21:11:16.664Z,7.80
2022-11-06T21:13:46.771Z,7.43
2022-11-06T21:16:13.695Z,7.60
2022-11-06T21:18:41.789Z,7.80
2022-11-06T21:21:11.741Z,7.90
2022-11-06T21:23:39.458Z,8.45
2022-11-06T21:26:17.812Z,7.68
2022-11-06T21:28:45.169Z,7.32
2022-11-06T21:31:17.508Z,9.30
2022-11-06T21:33:47.603Z,6.97
2022-11-06T21:36:18.173Z,7.38
2022-11-06T21:38:45.515Z,5.65
2022-11-06T21:41:15.295Z,10.52
2022-11-06T21:43:43.875Z,10.20
2022-11-06T21:46:12.972Z,6.07
2022-11-06T21:48:46.236Z,9.10
2022-11-06T21:51:20.083Z,9.80
2022-11-06T21:54:06.734Z,7.60
2022-11-06T21:56:34.444Z,8.65
2022-11-06T21:59:03.101Z,8.35
2022-11-06T22:01:30.945Z,10.85
2022-11-06T22:03:58.463Z,9.27
2022-11-06T22:06:27.099Z,8.45
2022-11-06T22:08:57.015Z,7.07
2022-11-06T22:11:35.734Z,7.30
2022-11-06T22:14:06.516Z,7.10
2022-11-06T22:16:39.522Z,5.82
2022-11-06T22:19:07.920Z,16.17
2022-11-06T22:21:36.391Z,5.68
2022-11-06T22:24:03.625Z,6.95
2022-11-06T22:26:32.968Z,9.82
2022-11-06T22:29:02.362Z,8.52
2022-11-06T22:31:29.733Z,6.65
2022-11-06T22:33:57.639Z,9.27
2022-11-06T22:36:25.323Z,7.40
2022-11-06T22:38:53.446Z,7.43
2022-11-06T22:41:23.620Z,7.45
2022-11-06T22:43:51.900Z,7.13
2022-11-06T22:46:23.462Z,8.77
2022-11-06T22:48:51.824Z,9.75
2022-11-06T22:51:24.785Z,7.47
2022-11-06T22:53:52.492Z,10.37
2022-11-06T22:56:21.401Z,8.98
2022-11-06T22:58:52.748Z,7.85
2022-11-06T23:01:23.261Z,10.65
2022-11-06T23:03:50.788Z,6.65
2022-11-06T23:06:17.743Z,7.15
2022-11-06T23:08:47.095Z,5.78
2022-11-06T23:11:17.269Z,9.25
2022-11-06T23:13:44.697Z,7.95
2022-11-06T23:16:14.538Z,6.18
2022-11-06T23:18:41.770Z,7.55
2022-11-06T23:21:17.338Z,6.00
2022-11-06T23:23:45.697Z,5.93
2022-11-06T23:26:14.938Z,9.90
2022-11-06T23:28:43.593Z,7.25
2022-11-06T23:31:12.228Z,8.25
2022-11-06T23:33:39.610Z,8.93
2022-11-06T23:36:08.183Z,11.27
2022-11-06T23:38:35.730Z,10.20
2022-11-06T23:41:45.914Z,9.85
2022-11-06T23:44:33.098Z,5.65
2022-11-06T23:47:00.986Z,5.93
2022-11-06T23:49:28.115Z,5.32
2022-11-06T23:51:55.098Z,7.53
2022-11-06T23:54:22.510Z,5.88
2022-11-06T23:56:49.542Z,7.90
2022-11-06T23:59:16.563Z,7.40
